createdAt,value
2018-03-12T00:02:26.615Z,99190.23
2018-03-12T00:04:55.474Z,99194.47
2018-03-12T00:07:23.892Z,99182.33
2018-03-12T00:09:52.266Z,99182.48
2018-03-12T00:12:20.828Z,99175.03
2018-03-12T00:14:49.384Z,99187.70
2018-03-12T00:17:17.923Z,99181.23
2018-03-12T00:19:46.418Z,99174.84
2018-03-12T00:22:32.393Z,99184.34
2018-03-12T00:25:01.153Z,99184.91
2018-03-12T00:27:29.521Z,99178.52
2018-03-12T00:29:58.043Z,99180.17
2018-03-12T00:32:26.453Z,99186.41
2018-03-12T00:34:54.812Z,99187.09
2018-03-12T00:37:23.288Z,99185.66
2018-03-12T00:39:51.880Z,99181.60
2018-03-12T00:42:20.273Z,99185.72
2018-03-12T00:44:49.562Z,99186.22
2018-03-12T00:47:19.367Z,99182.21
2018-03-12T00:49:48.544Z,99181.53
2018-03-12T00:52:16.938Z,99179.77
2018-03-12T00:54:45.328Z,99176.80
2018-03-12T00:57:14.615Z,99176.89
2018-03-12T00:59:43.018Z,99180.22
2018-03-12T01:02:11.863Z,99180.17
2018-03-12T01:04:40.177Z,99172.76
2018-03-12T01:07:08.488Z,99175.91
2018-03-12T01:09:37.339Z,99170.09
2018-03-12T01:12:05.632Z,99168.44
2018-03-12T01:14:34.740Z,99168.23
2018-03-12T01:17:03.107Z,99165.77
2018-03-12T01:19:32.219Z,99158.07
2018-03-12T01:22:00.555Z,99163.36
2018-03-12T01:24:28.929Z,99164.34
2018-03-12T01:26:57.257Z,99156.23
2018-03-12T01:29:25.589Z,99152.35
2018-03-12T01:31:54.037Z,99145.34
2018-03-12T01:34:28.128Z,99148.47
2018-03-12T01:36:56.499Z,99139.13
2018-03-12T01:39:24.831Z,99141.74
2018-03-12T01:41:53.179Z,99129.81
2018-03-12T01:44:21.566Z,99131.98
2018-03-12T01:46:49.897Z,99125.13
2018-03-12T01:49:18.993Z,99120.53
2018-03-12T01:51:47.630Z,99125.34
2018-03-12T01:54:15.996Z,99122.76
2018-03-12T01:56:44.345Z,99122.09
2018-03-12T01:59:13.484Z,99110.67
2018-03-12T02:01:41.833Z,99113.80
2018-03-12T02:04:10.155Z,99107.31
2018-03-12T02:06:39.260Z,99107.23
2018-03-12T02:09:07.604Z,99112.80
2018-03-12T02:11:35.934Z,99104.70
2018-03-12T02:14:04.492Z,99108.17
2018-03-12T02:16:32.824Z,99100.73
2018-03-12T02:19:01.909Z,99104.40
2018-03-12T02:21:31.033Z,99100.85
2018-03-12T02:23:59.355Z,99099.49
2018-03-12T02:26:27.677Z,99099.92
2018-03-12T02:28:56.043Z,99102.16
2018-03-12T02:31:25.126Z,99096.27
2018-03-12T02:33:53.455Z,99091.97
2018-03-12T02:36:22.051Z,99092.31
2018-03-12T02:38:50.394Z,99093.25
2018-03-12T02:41:18.746Z,99090.56
2018-03-12T02:43:47.108Z,99092.00
2018-03-12T02:46:15.456Z,99088.62
2018-03-12T02:48:43.801Z,99094.69
2018-03-12T02:51:12.176Z,99098.69
2018-03-12T02:53:41.276Z,99096.80
2018-03-12T02:56:09.688Z,99091.89
2018-03-12T02:58:38.112Z,99091.74
2018-03-12T03:01:07.222Z,99089.95
2018-03-12T03:03:35.589Z,99088.70
2018-03-12T03:06:03.977Z,99086.70
2018-03-12T03:08:32.302Z,99091.75
2018-03-12T03:11:00.642Z,99090.42
2018-03-12T03:13:29.764Z,99085.34
2018-03-12T03:15:58.080Z,99077.48
2018-03-12T03:18:26.416Z,99082.41
2018-03-12T03:20:54.865Z,99077.13
2018-03-12T03:23:23.191Z,99071.13
2018-03-12T03:25:51.489Z,99071.94
2018-03-12T03:28:19.843Z,99071.19
2018-03-12T03:30:48.143Z,99071.72
2018-03-12T03:33:16.482Z,99070.06
2018-03-12T03:35:44.881Z,99069.70
2018-03-12T03:38:13.216Z,99072.03
2018-03-12T03:40:42.333Z,99069.48
2018-03-12T03:43:11.830Z,99067.09
2018-03-12T03:45:40.148Z,99061.63
2018-03-12T03:48:08.489Z,99071.47
2018-03-12T03:50:37.617Z,99064.62
2018-03-12T03:53:05.963Z,99073.44
2018-03-12T03:55:34.309Z,99068.35
2018-03-12T03:58:02.714Z,99062.11
2018-03-12T04:00:31.060Z,99070.16
2018-03-12T04:02:59.401Z,99070.96
2018-03-12T04:05:28.054Z,99073.02
2018-03-12T04:07:57.164Z,99071.37
2018-03-12T04:10:25.488Z,99076.02
2018-03-12T04:12:53.843Z,99077.81
2018-03-12T04:15:22.234Z,99076.73
2018-03-12T04:17:50.565Z,99086.77
2018-03-12T04:20:18.891Z,99076.27
2018-03-12T04:22:47.196Z,99076.11
2018-03-12T04:25:15.521Z,99066.16
2018-03-12T04:27:44.100Z,99068.39
2018-03-12T04:30:13.182Z,99068.51
2018-03-12T04:32:42.270Z,99063.71
2018-03-12T04:35:10.597Z,99057.83
2018-03-12T04:37:38.926Z,99058.11
2018-03-12T04:40:07.234Z,99051.09
2018-03-12T04:42:35.602Z,99045.07
2018-03-12T04:45:04.677Z,99043.91
2018-03-12T04:47:33.043Z,99048.13
2018-03-12T04:50:01.497Z,99044.70
2018-03-12T04:52:29.838Z,99044.60
2018-03-12T04:54:58.931Z,99037.37
2018-03-12T04:57:28.018Z,99030.96
2018-03-12T04:59:57.090Z,99036.23
2018-03-12T05:02:25.426Z,99038.14
2018-03-12T05:04:53.778Z,99024.56
2018-03-12T05:07:22.888Z,99029.48
2018-03-12T05:09:51.241Z,99035.75
2018-03-12T05:12:20.023Z,99024.80
2018-03-12T05:14:48.336Z,99013.33
2018-03-12T05:17:16.664Z,99007.92
2018-03-12T05:19:45.025Z,99004.73
2018-03-12T05:22:13.344Z,99018.57
2018-03-12T05:24:41.706Z,99025.42
2018-03-12T05:27:10.103Z,99031.75
2018-03-12T05:29:39.189Z,99018.53
2018-03-12T05:32:07.511Z,99014.91
2018-03-12T05:34:35.926Z,99018.04
2018-03-12T05:37:04.269Z,99015.47
2018-03-12T05:39:32.597Z,99009.06
2018-03-12T05:42:00.932Z,99010.09
2018-03-12T05:44:29.267Z,99008.80
2018-03-12T05:46:57.569Z,99015.33
2018-03-12T05:49:25.926Z,99009.89
2018-03-12T05:51:55.023Z,99008.84
2018-03-12T05:54:24.194Z,99006.31
2018-03-12T05:56:52.699Z,99008.92
2018-03-12T05:59:21.054Z,99006.95
2018-03-12T06:01:49.368Z,99006.55
2018-03-12T06:04:17.796Z,99014.34
2018-03-12T06:06:46.134Z,99003.97
2018-03-12T06:09:17.120Z,99009.86
2018-03-12T06:11:45.491Z,99007.64
2018-03-12T06:14:13.848Z,99004.38
2018-03-12T06:16:42.196Z,99008.05
2018-03-12T06:19:11.462Z,98999.33
2018-03-12T06:21:39.788Z,98996.31
2018-03-12T06:24:08.120Z,98991.93
2018-03-12T06:26:36.457Z,98991.93
2018-03-12T06:29:04.810Z,98996.00
2018-03-12T06:31:33.919Z,98989.94
2018-03-12T06:34:03.049Z,98995.70
2018-03-12T06:36:31.420Z,98998.08
2018-03-12T06:38:59.722Z,98999.85
2018-03-12T06:41:28.461Z,99000.41
2018-03-12T06:43:56.801Z,99005.07
2018-03-12T06:46:25.132Z,99008.31
2018-03-12T06:48:53.525Z,99011.72
2018-03-12T06:51:21.834Z,99008.34
2018-03-12T06:53:50.140Z,99007.28
2018-03-12T06:56:18.463Z,99004.43
2018-03-12T06:58:46.762Z,99009.34
2018-03-12T07:01:15.085Z,99002.98
2018-03-12T07:03:44.625Z,99009.12
2018-03-12T07:06:12.960Z,99006.79
2018-03-12T07:08:41.260Z,99011.45
2018-03-12T07:11:09.606Z,99007.48
2018-03-12T07:13:37.918Z,99006.52
2018-03-12T07:16:06.262Z,99007.09
2018-03-12T07:18:34.603Z,99010.45
2018-03-12T07:21:02.953Z,99012.91
2018-03-12T07:23:31.306Z,99019.15
2018-03-12T07:26:00.522Z,99015.27
2018-03-12T07:28:28.872Z,99016.67
2018-03-12T07:30:57.197Z,99010.95
2018-03-12T07:33:25.561Z,99003.30
2018-03-12T07:35:53.865Z,99007.38
2018-03-12T07:38:22.203Z,99003.93
2018-03-12T07:40:51.349Z,99000.61
2018-03-12T07:43:19.683Z,98996.50
2018-03-12T07:45:48.363Z,99003.37
2018-03-12T07:48:17.060Z,99009.23
2018-03-12T07:50:45.374Z,99009.92
2018-03-12T07:53:13.688Z,99007.56
2018-03-12T07:55:42.024Z,99006.68
2018-03-12T07:58:10.341Z,99014.47
2018-03-12T08:00:38.692Z,99010.25
2018-03-12T08:03:07.033Z,99012.02
2018-03-12T08:05:36.150Z,99011.20
2018-03-12T08:08:04.493Z,99015.48
2018-03-12T08:10:33.990Z,99014.19
2018-03-12T08:13:02.308Z,99016.84
2018-03-12T08:15:30.630Z,99014.06
2018-03-12T08:17:59.444Z,99016.53
2018-03-12T08:20:27.781Z,99019.45
2018-03-12T08:22:56.099Z,99020.42
2018-03-12T08:25:24.462Z,99021.86
2018-03-12T08:27:52.785Z,99021.00
2018-03-12T08:30:21.108Z,99022.94
2018-03-12T08:32:50.147Z,99022.08
2018-03-12T08:35:18.500Z,99020.84
2018-03-12T08:37:47.613Z,99020.72
2018-03-12T08:40:16.715Z,99025.91
2018-03-12T08:42:45.827Z,99023.45
2018-03-12T08:45:14.157Z,99018.84
2018-03-12T08:47:42.504Z,99020.48
2018-03-12T08:50:10.845Z,99021.75
2018-03-12T08:52:39.953Z,99017.52
2018-03-12T08:55:08.496Z,99014.75
2018-03-12T08:57:36.901Z,99018.28
2018-03-12T09:00:06.005Z,99016.02
2018-03-12T09:02:35.161Z,99019.31
2018-03-12T09:05:03.516Z,99017.94
2018-03-12T09:07:31.855Z,99024.63
2018-03-12T09:10:00.973Z,99017.05
2018-03-12T09:12:29.282Z,99007.63
2018-03-12T09:14:57.611Z,99012.88
2018-03-12T09:17:26.285Z,99011.10
2018-03-12T09:19:54.621Z,99008.88
2018-03-12T09:22:22.936Z,99013.02
2018-03-12T09:24:51.370Z,99004.86
2018-03-12T09:27:20.397Z,99005.69
2018-03-12T09:29:48.738Z,99012.56
2018-03-12T09:32:17.069Z,99013.70
2018-03-12T09:34:45.410Z,99015.44
2018-03-12T09:37:13.756Z,99015.05
2018-03-12T09:39:42.242Z,99016.55
2018-03-12T09:42:10.579Z,99017.17
2018-03-12T09:44:38.889Z,99015.42
2018-03-12T09:47:07.220Z,99013.92
2018-03-12T09:49:35.561Z,99014.45
2018-03-12T09:52:03.874Z,99008.23
2018-03-12T09:54:32.232Z,99011.94
2018-03-12T09:57:00.563Z,99011.00
2018-03-12T09:59:28.912Z,99013.11
2018-03-12T10:01:57.308Z,99019.39
2018-03-12T10:04:25.884Z,99018.03
2018-03-12T10:06:54.228Z,99016.88
2018-03-12T10:09:22.607Z,99018.95
2018-03-12T10:11:50.922Z,99017.59
2018-03-12T10:14:19.301Z,99019.78
2018-03-12T10:16:47.638Z,99024.20
2018-03-12T10:19:15.941Z,99024.40
2018-03-12T10:21:44.314Z,99018.94
2018-03-12T10:24:12.713Z,99024.27
2018-03-12T10:26:41.046Z,99025.16
2018-03-12T10:29:09.394Z,99028.11
2018-03-12T10:31:37.749Z,99027.19
2018-03-12T10:34:06.174Z,99018.13
2018-03-12T10:36:34.559Z,99025.55
2018-03-12T10:39:02.913Z,99025.25
2018-03-12T10:41:32.008Z,99019.86
2018-03-12T10:44:01.100Z,99020.73
2018-03-12T10:46:29.777Z,99026.31
2018-03-12T10:48:58.099Z,99023.92
2018-03-12T10:51:26.437Z,99020.17
2018-03-12T10:53:55.001Z,99023.12
2018-03-12T10:56:23.327Z,99016.91
2018-03-12T10:58:51.655Z,99016.38
2018-03-12T11:01:25.429Z,99014.30
2018-03-12T11:03:53.748Z,99015.48
2018-03-12T11:06:23.723Z,99011.81
2018-03-12T11:08:52.493Z,99008.41
2018-03-12T11:11:21.578Z,99012.67
2018-03-12T11:13:49.907Z,99011.20
2018-03-12T11:16:18.276Z,99011.40
2018-03-12T11:18:46.576Z,99009.31
2018-03-12T11:21:14.899Z,99005.53
2018-03-12T11:23:44.012Z,99011.58
2018-03-12T11:26:12.338Z,99004.52
2018-03-12T11:28:40.662Z,99005.86
2018-03-12T11:31:09.060Z,99000.81
2018-03-12T11:33:37.376Z,98995.70
2018-03-12T11:36:05.708Z,98990.99
2018-03-12T11:38:34.054Z,98995.27
2018-03-12T11:41:02.410Z,98989.28
2018-03-12T11:43:30.759Z,98991.22
2018-03-12T11:45:59.168Z,98992.04
2018-03-12T11:48:27.494Z,98991.65
2018-03-12T11:50:55.818Z,98986.16
2018-03-12T11:53:24.353Z,98994.33
2018-03-12T11:55:52.661Z,98990.54
2018-03-12T11:58:20.979Z,98982.72
2018-03-12T12:00:49.334Z,98987.34
2018-03-12T12:03:17.657Z,98987.37
2018-03-12T12:05:46.010Z,98982.31
2018-03-12T12:08:14.341Z,98978.97
2018-03-12T12:10:42.656Z,98986.73
2018-03-12T12:13:11.007Z,98977.15
2018-03-12T12:15:39.523Z,98981.36
2018-03-12T12:18:07.856Z,98986.34
2018-03-12T12:20:36.186Z,98992.11
2018-03-12T12:23:04.547Z,98982.86
2018-03-12T12:25:32.878Z,98981.48
2018-03-12T12:28:01.216Z,98982.00
2018-03-12T12:30:29.589Z,98982.57
2018-03-12T12:32:57.927Z,98973.94
2018-03-12T12:35:26.243Z,98980.13
2018-03-12T12:37:55.219Z,98973.91
2018-03-12T12:40:23.555Z,98974.85
2018-03-12T12:42:51.901Z,98976.56
2018-03-12T12:45:20.265Z,98985.67
2018-03-12T12:47:48.586Z,98984.30
2018-03-12T12:50:17.690Z,98984.75
2018-03-12T12:52:46.031Z,98982.47
2018-03-12T12:55:14.375Z,98988.92
2018-03-12T12:57:42.704Z,98978.95
2018-03-12T13:00:12.001Z,98981.36
2018-03-12T13:02:40.332Z,98978.86
2018-03-12T13:05:08.647Z,98974.72
2018-03-12T13:07:37.004Z,98973.80
2018-03-12T13:10:05.412Z,98968.16
2018-03-12T13:12:33.740Z,98972.66
2018-03-12T13:15:02.132Z,98963.52
2018-03-12T13:17:30.439Z,98970.17
2018-03-12T13:19:58.756Z,98972.48
2018-03-12T13:22:27.188Z,98969.09
2018-03-12T13:24:55.572Z,98968.59
2018-03-12T13:27:23.892Z,98976.84
2018-03-12T13:29:53.033Z,98982.27
2018-03-12T13:32:21.421Z,98980.47
2018-03-12T13:34:49.737Z,98981.95
2018-03-12T13:37:18.839Z,98989.52
2018-03-12T13:39:47.938Z,98980.37
2018-03-12T13:42:16.285Z,98976.50
2018-03-12T13:44:44.836Z,98983.98
2018-03-12T13:47:13.138Z,98981.65
2018-03-12T13:49:41.452Z,98984.68
2018-03-12T13:52:10.927Z,98986.95
2018-03-12T13:54:39.235Z,98979.77
2018-03-12T13:57:08.319Z,98976.16
2018-03-12T13:59:37.575Z,98975.36
2018-03-12T14:02:07.186Z,98973.63
2018-03-12T14:04:35.538Z,98971.92
2018-03-12T14:07:03.957Z,98975.09
2018-03-12T14:09:32.341Z,98977.01
2018-03-12T14:12:00.684Z,98976.12
2018-03-12T14:14:29.049Z,98976.77
2018-03-12T14:16:57.384Z,98978.29
2018-03-12T14:19:25.705Z,98982.30
2018-03-12T14:21:54.047Z,98984.63
2018-03-12T14:24:22.375Z,98986.88
2018-03-12T14:26:50.692Z,98981.83
2018-03-12T14:29:19.349Z,98989.66
2018-03-12T14:31:47.726Z,98983.20
2018-03-12T14:34:16.019Z,98982.19
2018-03-12T14:36:44.351Z,98989.00
2018-03-12T14:39:13.429Z,98982.42
2018-03-12T14:41:41.776Z,98990.38
2018-03-12T14:44:10.195Z,98989.67
2018-03-12T14:46:38.564Z,98981.66
2018-03-12T14:49:07.667Z,98985.20
2018-03-12T14:51:36.865Z,98987.45
2018-03-12T14:54:05.177Z,98983.33
2018-03-12T14:56:33.484Z,98987.47
2018-03-12T14:59:01.827Z,98991.57
2018-03-12T15:01:30.162Z,98988.48
2018-03-12T15:03:58.493Z,98995.05
2018-03-12T15:06:26.834Z,98993.92
2018-03-12T15:08:55.931Z,98995.34
2018-03-12T15:11:25.032Z,98998.70
2018-03-12T15:13:54.219Z,98998.84
2018-03-12T15:16:22.541Z,99005.06
2018-03-12T15:18:50.881Z,99004.00
2018-03-12T15:21:20.040Z,99004.38
2018-03-12T15:23:48.350Z,98998.77
2018-03-12T15:26:16.673Z,99003.03
2018-03-12T15:28:45.031Z,99000.61
2018-03-12T15:31:13.382Z,99001.77
2018-03-12T15:33:41.686Z,99005.15
2018-03-12T15:36:10.109Z,99005.94
2018-03-12T15:38:38.441Z,99003.09
2018-03-12T15:41:06.756Z,99006.70
2018-03-12T15:43:35.100Z,99009.56
2018-03-12T15:46:04.203Z,99007.58
2018-03-12T15:48:32.543Z,99007.02
2018-03-12T15:51:00.888Z,99008.17
2018-03-12T15:53:29.220Z,99010.90
2018-03-12T15:55:58.310Z,99011.61
2018-03-12T15:58:27.489Z,99010.30
2018-03-12T16:00:55.808Z,99013.11
2018-03-12T16:03:24.117Z,99012.81
2018-03-12T16:05:52.458Z,99020.50
2018-03-12T16:08:21.610Z,99023.05
2018-03-12T16:10:49.970Z,99020.83
2018-03-12T16:13:18.313Z,99026.55
2018-03-12T16:15:47.422Z,99025.19
2018-03-12T16:18:15.791Z,99026.31
2018-03-12T16:20:44.381Z,99027.46
2018-03-12T16:23:13.835Z,99028.29
2018-03-12T16:25:42.258Z,99024.08
2018-03-12T16:28:10.638Z,99031.30
2018-03-12T16:30:38.978Z,99033.98
2018-03-12T16:33:07.328Z,99034.27
2018-03-12T16:35:35.676Z,99031.01
2018-03-12T16:38:04.004Z,99028.56
2018-03-12T16:40:32.347Z,99030.53
2018-03-12T16:43:00.803Z,99033.48
2018-03-12T16:45:29.141Z,99036.11
2018-03-12T16:47:57.488Z,99032.34
2018-03-12T16:50:25.838Z,99028.75
2018-03-12T16:52:54.985Z,99033.58
2018-03-12T16:55:23.280Z,99036.27
2018-03-12T16:57:51.712Z,99033.25
2018-03-12T17:00:20.078Z,99036.75
2018-03-12T17:02:49.229Z,99039.23
2018-03-12T17:05:17.995Z,99040.88
2018-03-12T17:07:46.333Z,99040.79
2018-03-12T17:10:15.420Z,99039.58
2018-03-12T17:12:43.779Z,99045.42
2018-03-12T17:15:12.132Z,99044.28
2018-03-12T17:17:40.455Z,99041.92
2018-03-12T17:20:08.842Z,99044.61
2018-03-12T17:22:37.923Z,99050.19
2018-03-12T17:25:06.292Z,99046.50
2018-03-12T17:27:34.943Z,99057.89
2018-03-12T17:30:03.297Z,99061.23
2018-03-12T17:32:31.725Z,99064.46
2018-03-12T17:35:00.077Z,99067.67
2018-03-12T17:37:28.410Z,99069.02
2018-03-12T17:39:56.749Z,99073.20
2018-03-12T17:42:25.127Z,99074.88
2018-03-12T17:44:53.493Z,99078.33
2018-03-12T17:47:21.845Z,99081.20
2018-03-12T17:49:51.238Z,99078.84
2018-03-12T17:52:19.545Z,99089.16
2018-03-12T17:54:47.875Z,99086.27
2018-03-12T17:57:16.241Z,99090.09
2018-03-12T17:59:44.583Z,99087.80
2018-03-12T18:02:12.957Z,99098.49
2018-03-12T18:04:41.335Z,99096.08
2018-03-12T18:07:09.661Z,99099.84
2018-03-12T18:09:38.017Z,99100.48
2018-03-12T18:12:06.757Z,99103.64
2018-03-12T18:14:35.924Z,99103.75
2018-03-12T18:17:04.293Z,99105.78
2018-03-12T18:19:32.641Z,99103.95
2018-03-12T18:22:00.968Z,99105.98
2018-03-12T18:24:29.294Z,99107.20
2018-03-12T18:26:57.639Z,99107.39
2018-03-12T18:29:26.049Z,99113.62
2018-03-12T18:31:54.375Z,99108.25
2018-03-12T18:34:22.932Z,99108.38
2018-03-12T18:36:51.276Z,99105.88
2018-03-12T18:39:20.455Z,99116.44
2018-03-12T18:41:48.902Z,99116.81
2018-03-12T18:44:17.235Z,99116.11
2018-03-12T18:46:45.574Z,99111.97
2018-03-12T18:49:13.926Z,99111.70
2018-03-12T18:51:42.266Z,99114.88
2018-03-12T18:54:11.351Z,99115.36
2018-03-12T18:56:40.613Z,99110.91
2018-03-12T18:59:08.953Z,99119.94
2018-03-12T19:01:38.026Z,99123.08
2018-03-12T19:04:06.387Z,99127.80
2018-03-12T19:06:34.717Z,99124.14
2018-03-12T19:09:03.027Z,99121.75
2018-03-12T19:11:31.550Z,99127.77
2018-03-12T19:13:59.857Z,99118.73
2018-03-12T19:16:28.215Z,99128.44
2018-03-12T19:18:57.369Z,99127.69
2018-03-12T19:21:25.699Z,99131.44
2018-03-12T19:23:54.094Z,99125.16
2018-03-12T19:26:22.486Z,99128.30
2018-03-12T19:28:50.858Z,99136.64
2018-03-12T19:31:19.185Z,99136.10
2018-03-12T19:33:49.285Z,99138.28
2018-03-12T19:36:17.612Z,99133.38
2018-03-12T19:38:45.958Z,99133.16
2018-03-12T19:41:14.380Z,99131.11
2018-03-12T19:43:42.718Z,99132.81
2018-03-12T19:46:11.224Z,99126.97
2018-03-12T19:48:40.366Z,99132.09
2018-03-12T19:51:08.692Z,99137.37
2018-03-12T19:53:37.784Z,99136.83
2018-03-12T19:56:06.176Z,99128.89
2018-03-12T19:58:35.273Z,99137.80
2018-03-12T20:01:04.409Z,99141.66
2018-03-12T20:03:33.058Z,99145.27
2018-03-12T20:06:04.097Z,99142.60
2018-03-12T20:08:38.424Z,99143.99
2018-03-12T20:11:06.770Z,99142.77
2018-03-12T20:13:37.734Z,99144.33
2018-03-12T20:16:18.023Z,99147.40
2018-03-12T20:18:46.361Z,99152.81
2018-03-12T20:21:15.453Z,99152.42
2018-03-12T20:23:44.027Z,99153.67
2018-03-12T20:26:12.426Z,99148.73
2018-03-12T20:28:40.704Z,99142.82
2018-03-12T20:31:09.103Z,99139.77
2018-03-12T20:33:37.422Z,99136.77
2018-03-12T20:36:05.744Z,99140.95
2018-03-12T20:38:34.116Z,99143.09
2018-03-12T20:41:03.204Z,99141.52
2018-03-12T20:43:31.536Z,99146.73
2018-03-12T20:46:00.093Z,99141.55
2018-03-12T20:48:28.409Z,99140.27
2018-03-12T20:50:56.730Z,99133.35
2018-03-12T20:53:25.898Z,99138.45
2018-03-12T20:55:54.277Z,99140.94
2018-03-12T20:58:22.605Z,99144.02
2018-03-12T21:00:51.253Z,99145.28
2018-03-12T21:03:19.597Z,99148.61
2018-03-12T21:05:47.941Z,99151.61
2018-03-12T21:08:16.647Z,99147.91
2018-03-12T21:10:44.973Z,99157.70
2018-03-12T21:13:13.286Z,99152.66
2018-03-12T21:15:42.378Z,99161.67
2018-03-12T21:18:11.441Z,99161.16
2018-03-12T21:20:39.748Z,99155.68
2018-03-12T21:23:08.097Z,99162.66
2018-03-12T21:25:36.433Z,99159.28
2018-03-12T21:28:04.763Z,99162.50
2018-03-12T21:30:34.074Z,99164.08
2018-03-12T21:33:02.394Z,99157.52
2018-03-12T21:35:30.705Z,99157.80
2018-03-12T21:37:59.312Z,99160.33
2018-03-12T21:40:27.630Z,99157.52
2018-03-12T21:42:55.999Z,99160.41
2018-03-12T21:45:24.353Z,99153.31
2018-03-12T21:47:53.442Z,99155.67
2018-03-12T21:50:21.866Z,99155.20
2018-03-12T21:52:50.338Z,99160.95
2018-03-12T21:55:18.685Z,99154.81
2018-03-12T21:57:47.046Z,99160.90
2018-03-12T22:00:15.413Z,99157.49
2018-03-12T22:02:43.755Z,99157.06
2018-03-12T22:05:12.094Z,99162.62
2018-03-12T22:07:40.543Z,99164.28
2018-03-12T22:10:09.131Z,99159.56
2018-03-12T22:12:37.585Z,99148.08
2018-03-12T22:15:07.278Z,99157.37
2018-03-12T22:17:35.804Z,99151.53
2018-03-12T22:20:04.197Z,99153.91
2018-03-12T22:22:32.576Z,99149.82
2018-03-12T22:25:00.948Z,99152.55
2018-03-12T22:27:29.272Z,99154.94
2018-03-12T22:29:58.379Z,99156.88
2018-03-12T22:32:26.700Z,99161.89
2018-03-12T22:34:55.068Z,99152.05
2018-03-12T22:37:23.501Z,99144.53
2018-03-12T22:39:52.602Z,99148.31
2018-03-12T22:42:21.729Z,99155.17
2018-03-12T22:44:50.898Z,99158.78
2018-03-12T22:47:19.985Z,99155.31
2018-03-12T22:49:49.105Z,99159.28
2018-03-12T22:52:17.793Z,99166.19
2018-03-12T22:54:46.158Z,99166.25
2018-03-12T22:57:15.243Z,99174.17
2018-03-12T22:59:44.467Z,99166.05
2018-03-12T23:02:12.808Z,99166.28
2018-03-12T23:04:41.158Z,99177.25
2018-03-12T23:07:09.504Z,99178.75
2018-03-12T23:09:38.148Z,99176.57
2018-03-12T23:12:07.253Z,99179.56
2018-03-12T23:14:35.603Z,99174.32
2018-03-12T23:17:03.959Z,99182.31
2018-03-12T23:19:32.289Z,99180.23
2018-03-12T23:22:02.460Z,99179.20
2018-03-12T23:24:30.813Z,99176.98
2018-03-12T23:26:59.489Z,99173.34
2018-03-12T23:29:28.526Z,99177.61
2018-03-12T23:31:56.873Z,99180.22
2018-03-12T23:34:25.187Z,99177.22
2018-03-12T23:36:53.523Z,99174.62
2018-03-12T23:39:21.867Z,99173.16
2018-03-12T23:41:50.213Z,99169.19
2018-03-12T23:44:18.620Z,99173.92
2018-03-12T23:46:46.948Z,99179.05
2018-03-12T23:49:15.289Z,99174.05
2018-03-12T23:51:43.618Z,99174.02
2018-03-12T23:54:11.932Z,99173.62
2018-03-12T23:56:40.241Z,99178.55
2018-03-12T23:59:09.341Z,99181.19
